createdAt,value
2019-04-06T00:02:58.283Z,99842.55
2019-04-06T00:05:45.808Z,99841.91
2019-04-06T00:08:33.527Z,99838.34
2019-04-06T00:11:21.187Z,99838.59
2019-04-06T00:13:49.609Z,99846.13
2019-04-06T00:16:18.017Z,99850.08
2019-04-06T00:19:05.765Z,99852.28
2019-04-06T00:21:34.170Z,99855.50
2019-04-06T00:24:02.568Z,99848.64
2019-04-06T00:26:31.015Z,99851.28
2019-04-06T00:28:59.408Z,99845.97
2019-04-06T00:31:46.938Z,99838.68
2019-04-06T00:36:49.459Z,99849.34
2019-04-06T00:39:17.870Z,99850.23
2019-04-06T00:41:46.266Z,99845.34
2019-04-06T00:44:33.791Z,99853.65
2019-04-06T00:47:02.186Z,99857.55
2019-04-06T00:49:30.621Z,99858.88
2019-04-06T00:51:59.022Z,99859.14
2019-04-06T00:54:46.547Z,99858.82
2019-04-06T00:57:14.941Z,99859.39
2019-04-06T01:00:02.482Z,99862.95
2019-04-06T01:02:42.842Z,99858.47
2019-04-06T01:07:46.440Z,99857.73
2019-04-06T01:10:54.769Z,99853.31
2019-04-06T01:13:42.268Z,99857.34
2019-04-06T01:16:29.794Z,99854.48
2019-04-06T01:19:17.524Z,99862.16
2019-04-06T01:21:45.933Z,99863.09
2019-04-06T01:24:33.575Z,99862.84
2019-04-06T01:27:21.102Z,99866.42
2019-04-06T01:29:49.613Z,99868.02
2019-04-06T01:32:19.647Z,99869.08
2019-04-06T01:35:07.318Z,99874.55
2019-04-06T01:37:54.818Z,99874.32
2019-04-06T01:40:23.283Z,99877.79
2019-04-06T01:42:51.628Z,99882.76
2019-04-06T01:45:39.376Z,99881.80
2019-04-06T01:48:07.780Z,99883.23
2019-04-06T01:50:55.434Z,99882.09
2019-04-06T01:53:23.837Z,99871.02
2019-04-06T01:56:18.370Z,99867.79
2019-04-06T01:58:41.477Z,99867.88
2019-04-06T02:01:25.957Z,99872.58
2019-04-06T02:04:13.607Z,99867.47
2019-04-06T02:06:42.280Z,99868.02
2019-04-06T02:09:10.688Z,99872.16
2019-04-06T02:11:39.090Z,99868.70
2019-04-06T02:14:26.748Z,99873.00
2019-04-06T02:16:55.211Z,99863.27
2019-04-06T02:19:42.932Z,99862.00
2019-04-06T02:22:11.321Z,99863.91
2019-04-06T02:24:58.840Z,99860.86
2019-04-06T02:27:27.293Z,99854.13
2019-04-06T02:30:34.056Z,99852.47
2019-04-06T02:33:21.656Z,99857.31
2019-04-06T02:36:09.174Z,99861.05
2019-04-06T02:41:45.778Z,99851.36
2019-04-06T02:44:33.294Z,99856.22
2019-04-06T02:47:21.046Z,99867.34
2019-04-06T02:49:49.440Z,99859.83
2019-04-06T02:52:37.091Z,99855.85
2019-04-06T02:55:45.415Z,99850.11
2019-04-06T02:58:33.070Z,99854.44
2019-04-06T03:01:20.587Z,99842.84
2019-04-06T03:04:08.244Z,99845.17
2019-04-06T03:06:36.653Z,99841.00
2019-04-06T03:09:45.222Z,99844.08
2019-04-06T03:12:32.753Z,99843.69
2019-04-06T03:18:09.471Z,99841.96
2019-04-06T03:20:57.115Z,99845.86
2019-04-06T03:23:51.536Z,99849.50
2019-04-06T03:26:14.788Z,99842.56
2019-04-06T03:29:02.408Z,99846.43
2019-04-06T03:31:30.774Z,99846.27
2019-04-06T03:34:21.245Z,99841.64
2019-04-06T03:36:48.793Z,99838.62
2019-04-06T03:39:36.445Z,99838.88
2019-04-06T03:42:04.860Z,99832.63
2019-04-06T03:44:33.252Z,99828.41
2019-04-06T03:47:21.043Z,99824.53
2019-04-06T03:50:08.850Z,99826.25
2019-04-06T03:52:56.508Z,99826.03
2019-04-06T03:55:44.157Z,99827.22
2019-04-06T03:58:12.690Z,99815.05
2019-04-06T04:01:00.343Z,99815.72
2019-04-06T04:03:47.868Z,99817.30
2019-04-06T04:06:16.266Z,99824.63
2019-04-06T04:08:44.680Z,99821.45
2019-04-06T04:11:32.195Z,99823.67
2019-04-06T04:14:19.855Z,99831.63
2019-04-06T04:16:48.290Z,99831.63
2019-04-06T04:19:35.911Z,99829.89
2019-04-06T04:22:23.569Z,99833.72
2019-04-06T04:24:51.971Z,99822.14
2019-04-06T04:32:52.629Z,99829.66
2019-04-06T04:35:40.183Z,99828.83
2019-04-06T04:38:08.547Z,99826.34
2019-04-06T04:40:56.196Z,99823.80
2019-04-06T04:43:43.851Z,99822.05
2019-04-06T04:46:12.256Z,99826.73
2019-04-06T04:48:40.993Z,99821.35
2019-04-06T04:53:57.177Z,99836.72
2019-04-06T04:56:26.952Z,99825.11
2019-04-06T04:59:14.613Z,99824.84
2019-04-06T05:07:04.971Z,99835.70
2019-04-06T05:09:52.716Z,99822.55
2019-04-06T05:12:40.385Z,99821.61
2019-04-06T05:15:47.374Z,99822.49
2019-04-06T05:18:15.920Z,99815.23
2019-04-06T05:20:45.900Z,99818.28
2019-04-06T05:31:16.114Z,99817.44
2019-04-06T05:34:03.777Z,99814.62
2019-04-06T05:36:32.181Z,99816.75
2019-04-06T05:39:19.871Z,99819.58
2019-04-06T05:41:50.433Z,99811.77
2019-04-06T05:44:18.498Z,99819.16
2019-04-06T05:46:46.856Z,99813.28
2019-04-06T05:49:15.288Z,99806.88
2019-04-06T05:52:03.015Z,99807.89
2019-04-06T05:54:31.445Z,99819.71
2019-04-06T05:56:59.858Z,99828.27
2019-04-06T05:59:47.396Z,99827.92
2019-04-06T06:02:15.902Z,99828.98
2019-04-06T06:04:44.347Z,99840.45
2019-04-06T06:07:32.041Z,99831.23
2019-04-06T06:10:00.488Z,99833.73
2019-04-06T06:12:48.154Z,99836.44
2019-04-06T06:18:11.342Z,99852.94
2019-04-06T06:20:39.831Z,99844.91
2019-04-06T06:23:08.258Z,99853.28
2019-04-06T06:25:55.982Z,99860.77
2019-04-06T06:30:58.618Z,99870.71
2019-04-06T06:33:28.626Z,99870.63
2019-04-06T06:36:18.050Z,99879.37
2019-04-06T06:39:05.716Z,99884.12
2019-04-06T06:41:34.300Z,99889.89
2019-04-06T06:44:02.679Z,99897.72
2019-04-06T06:46:50.234Z,99895.30
2019-04-06T06:49:38.062Z,99890.95
2019-04-06T06:52:06.481Z,99879.54
2019-04-06T06:54:54.163Z,99882.31
2019-04-06T06:57:22.785Z,99879.89
2019-04-06T06:59:52.722Z,99886.87
2019-04-06T07:02:40.416Z,99889.77
2019-04-06T07:05:28.196Z,99881.64
2019-04-06T07:07:56.635Z,99889.00
2019-04-06T07:10:25.082Z,99893.44
2019-04-06T07:12:53.519Z,99886.45
2019-04-06T07:17:55.582Z,99881.95
2019-04-06T07:20:24.042Z,99886.41
2019-04-06T07:23:11.600Z,99875.74
2019-04-06T07:25:40.118Z,99884.55
2019-04-06T07:28:37.044Z,99876.11
2019-04-06T07:31:17.125Z,99879.11
2019-04-06T07:33:45.539Z,99880.63
2019-04-06T07:36:13.998Z,99882.00
2019-04-06T07:38:42.539Z,99883.75
2019-04-06T07:41:12.572Z,99884.54
2019-04-06T07:43:41.005Z,99890.44
2019-04-06T07:51:37.563Z,99902.81
2019-04-06T07:54:25.332Z,99898.33
2019-04-06T07:56:53.746Z,99889.28
2019-04-06T08:04:50.484Z,99900.03
2019-04-06T08:07:38.038Z,99901.70
2019-04-06T08:10:46.408Z,99903.55
2019-04-06T08:13:33.946Z,99902.23
2019-04-06T08:18:36.852Z,99910.73
2019-04-06T08:21:24.635Z,99907.95
2019-04-06T08:23:53.049Z,99914.34
2019-04-06T08:26:40.643Z,99908.10
2019-04-06T08:29:09.075Z,99917.48
2019-04-06T08:31:37.546Z,99909.61
2019-04-06T08:34:06.051Z,99909.28
2019-04-06T08:36:53.763Z,99908.39
2019-04-06T08:39:22.205Z,99911.96
2019-04-06T08:41:50.654Z,99914.38
2019-04-06T08:52:35.159Z,99913.32
2019-04-06T08:55:43.494Z,99907.67
2019-04-06T08:58:31.044Z,99902.04
2019-04-06T09:01:18.843Z,99905.03
2019-04-06T09:03:47.288Z,99901.86
2019-04-06T09:06:15.714Z,99902.34
2019-04-06T09:08:44.413Z,99905.64
2019-04-06T09:11:33.422Z,99905.24
2019-04-06T09:14:20.973Z,99911.48
2019-04-06T09:16:49.407Z,99910.98
2019-04-06T09:19:17.814Z,99908.58
2019-04-06T09:22:05.642Z,99914.86
2019-04-06T09:24:34.149Z,99905.20
2019-04-06T09:27:02.701Z,99905.86
2019-04-06T09:29:32.867Z,99909.97
2019-04-06T09:32:01.365Z,99901.54
2019-04-06T09:37:17.224Z,99903.78
2019-04-06T09:39:45.794Z,99902.25
2019-04-06T09:45:08.465Z,99897.41
2019-04-06T09:50:31.296Z,99885.98
2019-04-06T09:53:18.893Z,99893.20
2019-04-06T10:01:39.825Z,99884.55
2019-04-06T10:04:46.650Z,99880.60
2019-04-06T10:07:34.465Z,99885.08
2019-04-06T10:13:30.294Z,99875.82
2019-04-06T10:16:18.146Z,99870.11
2019-04-06T10:19:05.687Z,99879.58
2019-04-06T10:21:53.260Z,99879.15
2019-04-06T10:30:15.616Z,99871.56
2019-04-06T10:33:03.190Z,99871.42
2019-04-06T10:35:50.712Z,99864.99
2019-04-06T10:38:57.536Z,99863.89
2019-04-06T10:44:39.625Z,99865.85
2019-04-06T10:50:21.886Z,99857.46
2019-04-06T10:53:09.584Z,99860.95
2019-04-06T10:55:57.165Z,99860.73
2019-04-06T10:58:44.703Z,99861.98
2019-04-06T11:01:32.333Z,99863.74
2019-04-06T11:04:19.908Z,99857.67
2019-04-06T11:07:07.624Z,99864.49
2019-04-06T11:09:55.230Z,99861.16
2019-04-06T11:12:42.799Z,99858.86
2019-04-06T11:15:30.479Z,99861.98
2019-04-06T11:18:18.296Z,99858.57
2019-04-06T11:21:05.854Z,99849.42
2019-04-06T11:23:53.555Z,99848.03
2019-04-06T11:26:41.098Z,99851.59
2019-04-06T11:29:28.642Z,99843.92
2019-04-06T11:32:16.257Z,99838.66
2019-04-06T11:35:03.814Z,99835.56
2019-04-06T11:38:11.059Z,99834.61
2019-04-06T11:41:17.889Z,99823.51
2019-04-06T11:44:05.489Z,99827.59
2019-04-06T11:46:53.177Z,99831.69
2019-04-06T11:50:00.167Z,99822.34
2019-04-06T11:58:17.819Z,99818.94
2019-04-06T12:01:05.490Z,99817.78
2019-04-06T12:04:12.385Z,99824.82
2019-04-06T12:07:19.287Z,99827.85
2019-04-06T12:10:06.839Z,99822.98
2019-04-06T12:12:56.279Z,99821.06
2019-04-06T12:18:33.026Z,99809.77
2019-04-06T12:21:39.882Z,99817.53
2019-04-06T12:24:27.493Z,99818.18
2019-04-06T12:27:15.222Z,99816.55
2019-04-06T12:30:02.877Z,99810.59
2019-04-06T12:40:59.497Z,99810.16
2019-04-06T12:44:06.440Z,99807.00
2019-04-06T12:47:13.282Z,99805.30
2019-04-06T12:52:40.273Z,99809.33
2019-04-06T13:01:11.183Z,99791.82
2019-04-06T13:06:53.370Z,99786.95
2019-04-06T13:09:40.889Z,99784.45
2019-04-06T13:12:28.563Z,99780.64
2019-04-06T13:17:51.626Z,99780.92
2019-04-06T13:20:39.318Z,99775.20
2019-04-06T13:26:02.433Z,99766.39
2019-04-06T13:28:50.227Z,99766.14
2019-04-06T13:31:37.769Z,99769.61
2019-04-06T13:34:25.551Z,99769.27
2019-04-06T13:37:13.099Z,99766.63
2019-04-06T13:40:00.642Z,99758.14
2019-04-06T13:42:48.333Z,99754.80
2019-04-06T13:48:31.274Z,99755.73
2019-04-06T13:51:18.712Z,99757.71
2019-04-06T13:54:06.569Z,99752.08
2019-04-06T13:56:54.032Z,99750.56
2019-04-06T14:00:00.880Z,99748.83
2019-04-06T14:02:48.400Z,99745.77
2019-04-06T14:05:35.920Z,99750.78
2019-04-06T14:08:23.485Z,99747.48
2019-04-06T14:14:05.669Z,99738.17
2019-04-06T14:16:53.197Z,99743.33
2019-04-06T14:19:40.715Z,99748.22
2019-04-06T14:22:48.974Z,99744.57
2019-04-06T14:25:36.929Z,99738.82
2019-04-06T14:28:24.510Z,99734.28
2019-04-06T14:31:12.085Z,99745.83
2019-04-06T14:36:48.862Z,99734.42
2019-04-06T14:42:15.686Z,99748.61
2019-04-06T14:45:03.412Z,99741.73
2019-04-06T14:47:51.354Z,99738.67
2019-04-06T14:50:39.068Z,99737.66
2019-04-06T14:53:27.110Z,99737.77
2019-04-06T14:58:50.544Z,99738.40
2019-04-06T15:01:42.369Z,99736.67
2019-04-06T15:04:27.922Z,99730.91
2019-04-06T15:07:15.661Z,99728.66
2019-04-06T15:10:03.369Z,99729.22
2019-04-06T15:12:51.133Z,99728.67
2019-04-06T15:15:38.849Z,99731.34
2019-04-06T15:18:26.524Z,99724.91
2019-04-06T15:21:14.497Z,99728.84
2019-04-06T15:24:02.497Z,99733.82
2019-04-06T15:29:25.426Z,99730.69
2019-04-06T15:32:13.077Z,99729.25
2019-04-06T15:37:40.277Z,99731.80
2019-04-06T15:43:06.806Z,99718.99
2019-04-06T15:46:15.276Z,99718.42
2019-04-06T15:49:02.929Z,99719.53
2019-04-06T15:51:50.664Z,99720.11
2019-04-06T15:54:38.170Z,99718.12
2019-04-06T15:57:26.118Z,99726.37
2019-04-06T16:00:13.587Z,99715.88
2019-04-06T16:03:01.395Z,99720.84
2019-04-06T16:05:49.037Z,99718.95
2019-04-06T16:08:36.684Z,99717.02
2019-04-06T16:11:24.435Z,99720.94
2019-04-06T16:19:36.903Z,99720.67
2019-04-06T16:25:00.177Z,99719.50
2019-04-06T16:27:48.265Z,99719.43
2019-04-06T16:30:56.751Z,99723.81
2019-04-06T16:33:44.681Z,99722.25
2019-04-06T16:41:43.204Z,99731.79
2019-04-06T16:47:20.538Z,99723.71
2019-04-06T16:50:08.236Z,99721.96
2019-04-06T16:52:56.329Z,99714.23
2019-04-06T17:03:51.406Z,99716.88
2019-04-06T17:06:39.117Z,99714.55
2019-04-06T17:09:47.629Z,99726.78
2019-04-06T17:12:37.036Z,99730.91
2019-04-06T17:15:45.786Z,99731.92
2019-04-06T17:18:35.013Z,99730.17
2019-04-06T17:23:58.352Z,99733.23
2019-04-06T17:26:45.949Z,99735.98
2019-04-06T17:29:33.954Z,99731.58
2019-04-06T17:32:33.944Z,99726.22
2019-04-06T17:34:59.232Z,99732.69
2019-04-06T17:37:29.459Z,99730.25
2019-04-06T17:40:15.028Z,99736.58
2019-04-06T17:43:01.230Z,99732.84
2019-04-06T17:45:47.342Z,99740.00
2019-04-06T17:48:33.997Z,99738.34
2019-04-06T17:51:10.168Z,99736.27
2019-04-06T17:53:40.307Z,99740.56
2019-04-06T17:56:19.179Z,99735.97
2019-04-06T17:59:05.593Z,99741.08
2019-04-06T18:01:38.474Z,99742.26
2019-04-06T18:04:08.661Z,99743.90
2019-04-06T18:06:41.686Z,99748.23
2019-04-06T18:09:11.851Z,99751.83
2019-04-06T18:11:59.546Z,99753.82
2019-04-06T18:14:28.118Z,99752.84
2019-04-06T18:16:57.060Z,99756.63
2019-04-06T18:19:25.984Z,99755.16
2019-04-06T18:21:54.651Z,99755.06
2019-04-06T18:24:23.171Z,99760.22
2019-04-06T18:26:51.928Z,99760.20
2019-04-06T18:29:20.634Z,99756.14
2019-04-06T18:31:56.340Z,99757.48
2019-04-06T18:34:25.141Z,99758.80
2019-04-06T18:36:58.137Z,99757.39
2019-04-06T18:39:27.763Z,99759.69
2019-04-06T18:41:56.447Z,99755.94
2019-04-06T18:44:25.574Z,99756.50
2019-04-06T18:46:54.166Z,99758.92
2019-04-06T18:49:22.822Z,99760.48
2019-04-06T18:51:51.762Z,99767.76
2019-04-06T18:54:20.243Z,99766.45
2019-04-06T18:56:48.832Z,99765.80
2019-04-06T18:59:17.449Z,99763.63
2019-04-06T19:01:45.975Z,99767.17
2019-04-06T19:04:14.550Z,99767.31
2019-04-06T19:06:43.201Z,99763.16
2019-04-06T19:09:22.466Z,99768.18
2019-04-06T19:11:52.861Z,99762.31
2019-04-06T19:14:12.457Z,99758.95
2019-04-06T19:16:41.092Z,99752.45
2019-04-06T19:19:09.529Z,99758.77
2019-04-06T19:21:38.028Z,99757.20
2019-04-06T19:24:06.765Z,99759.34
2019-04-06T19:26:37.414Z,99755.15
2019-04-06T19:29:06.075Z,99753.79
2019-04-06T19:31:34.548Z,99754.92
2019-04-06T19:34:03.176Z,99758.91
2019-04-06T19:36:31.704Z,99757.08
2019-04-06T19:39:00.619Z,99764.36
2019-04-06T19:41:29.157Z,99769.50
2019-04-06T19:43:58.259Z,99766.74
2019-04-06T19:46:27.132Z,99762.30
2019-04-06T19:48:55.667Z,99763.70
2019-04-06T19:51:24.220Z,99768.95
2019-04-06T19:53:52.782Z,99762.81
2019-04-06T19:56:21.269Z,99762.11
2019-04-06T19:58:49.980Z,99765.60
2019-04-06T20:01:19.085Z,99761.20
2019-04-06T20:03:47.822Z,99760.42
2019-04-06T20:06:16.640Z,99755.80
2019-04-06T20:08:45.190Z,99759.36
2019-04-06T20:11:13.734Z,99766.60
2019-04-06T20:13:42.398Z,99764.77
2019-04-06T20:16:10.951Z,99762.66
2019-04-06T20:18:40.012Z,99762.48
2019-04-06T20:21:08.923Z,99757.92
2019-04-06T20:23:38.018Z,99759.63
2019-04-06T20:26:06.635Z,99758.61
2019-04-06T20:28:35.495Z,99758.25
2019-04-06T20:31:04.053Z,99749.61
2019-04-06T20:33:32.588Z,99754.80
2019-04-06T20:36:01.143Z,99749.59
2019-04-06T20:38:29.942Z,99748.97
2019-04-06T20:40:58.498Z,99746.17
2019-04-06T20:43:27.563Z,99748.23
2019-04-06T20:45:56.584Z,99749.16
2019-04-06T20:48:25.166Z,99756.31
2019-04-06T20:50:54.076Z,99749.81
2019-04-06T20:53:22.723Z,99752.84
2019-04-06T20:55:51.289Z,99751.30
2019-04-06T20:58:20.363Z,99748.70
2019-04-06T21:00:49.144Z,99753.23
2019-04-06T21:03:17.746Z,99752.13
2019-04-06T21:05:46.533Z,99750.47
2019-04-06T21:08:15.579Z,99753.16
2019-04-06T21:10:44.088Z,99752.49
2019-04-06T21:13:12.598Z,99753.41
2019-04-06T21:15:41.118Z,99751.36
2019-04-06T21:18:09.999Z,99752.91
2019-04-06T21:20:38.576Z,99755.29
2019-04-06T21:23:07.336Z,99757.77
2019-04-06T21:25:36.488Z,99753.04
2019-04-06T21:28:05.327Z,99752.14
2019-04-06T21:30:33.844Z,99758.59
2019-04-06T21:33:02.407Z,99757.77
2019-04-06T21:35:31.048Z,99755.84
2019-04-06T21:38:00.797Z,99747.63
2019-04-06T21:40:29.359Z,99757.17
2019-04-06T21:42:57.982Z,99757.00
2019-04-06T21:45:26.544Z,99752.72
2019-04-06T21:47:55.123Z,99747.76
2019-04-06T21:50:24.036Z,99752.08
2019-04-06T21:52:52.946Z,99755.71
2019-04-06T21:55:21.867Z,99753.84
2019-04-06T21:57:50.903Z,99748.66
2019-04-06T22:00:24.276Z,99751.92
2019-04-06T22:02:52.802Z,99754.55
2019-04-06T22:05:21.480Z,99754.74
2019-04-06T22:07:53.571Z,99753.98
2019-04-06T22:10:20.815Z,99748.16
2019-04-06T22:12:49.712Z,99748.13
2019-04-06T22:15:18.213Z,99751.81
2019-04-06T22:17:46.762Z,99755.34
2019-04-06T22:20:15.398Z,99754.11
2019-04-06T22:22:44.043Z,99747.45
2019-04-06T22:25:12.559Z,99756.54
2019-04-06T22:27:41.100Z,99758.30
2019-04-06T22:30:11.278Z,99755.59
2019-04-06T22:32:40.311Z,99753.41
2019-04-06T22:35:09.100Z,99752.38
2019-04-06T22:37:37.644Z,99756.34
2019-04-06T22:40:07.532Z,99749.73
2019-04-06T22:42:36.625Z,99753.80
2019-04-06T22:45:08.339Z,99754.84
2019-04-06T22:47:37.130Z,99753.05
2019-04-06T22:50:08.827Z,99746.91
2019-04-06T22:52:37.387Z,99749.57
2019-04-06T22:55:07.333Z,99749.50
2019-04-06T22:57:36.129Z,99752.48
2019-04-06T23:00:08.664Z,99750.48
2019-04-06T23:02:55.435Z,99755.44
2019-04-06T23:05:25.642Z,99750.33
2019-04-06T23:07:54.183Z,99760.41
2019-04-06T23:10:22.790Z,99756.02
2019-04-06T23:12:51.384Z,99752.31
2019-04-06T23:15:20.097Z,99747.42
2019-04-06T23:17:48.729Z,99752.59
2019-04-06T23:20:17.441Z,99752.59
2019-04-06T23:22:46.191Z,99754.46
2019-04-06T23:25:15.004Z,99752.02
2019-04-06T23:27:43.505Z,99751.31
2019-04-06T23:30:12.275Z,99752.52
2019-04-06T23:32:41.119Z,99749.31
2019-04-06T23:35:10.407Z,99754.34
2019-04-06T23:37:39.189Z,99755.37
2019-04-06T23:40:08.018Z,99748.19
2019-04-06T23:42:36.651Z,99750.55
2019-04-06T23:45:07.009Z,99755.17
2019-04-06T23:47:36.087Z,99750.36
2019-04-06T23:50:06.728Z,99748.87
2019-04-06T23:52:35.448Z,99746.02
2019-04-06T23:55:05.155Z,99748.18
2019-04-06T23:57:33.663Z,99744.80
